Time;durP1;ratioP1;P1;durP2;ratioP2;P2;SDS_P1;SDS_P2;PMS_P1;PMS_P2;Temp;Humidity;BMP_temperature;BMP_pressure;BME280_temperature;BME280_humidity;BME280_pressure;Samples;Min_cycle;Max_cycle;Signal;HPM_P1;HPM_P2
2024/03/24 00:01:27;;;;;;;2.87;2.40;;;;;;;4.40;100.00;100150.88;6269645;28;20227;-74
2024/03/24 00:04:48;;;;;;;1.83;1.73;;;;;;;4.36;100.00;100134.22;6270815;28;20254;-74
2024/03/24 00:08:08;;;;;;;7.53;3.13;;;;;;;4.40;100.00;100137.53;6276501;28;20315;-75
2024/03/24 00:11:30;;;;;;;8.70;3.07;;;;;;;4.38;100.00;100118.13;6280936;28;20227;-74
2024/03/24 00:14:56;;;;;;;2.97;2.10;;;;;;;4.33;100.00;100122.94;6272988;28;20223;-75
2024/03/24 00:18:17;;;;;;;2.90;1.67;;;;;;;4.31;100.00;100133.75;6281865;28;20695;-75
2024/03/24 00:21:47;;;;;;;2.93;2.63;;;;;;;4.27;100.00;100120.75;6267257;28;20227;-77
2024/03/24 00:25:09;;;;;;;2.60;2.40;;;;;;;4.29;100.00;100122.34;6262238;28;20214;-75
2024/03/24 00:28:32;;;;;;;3.17;2.70;;;;;;;4.28;100.00;100099.28;6287717;27;20250;-74
2024/03/24 00:31:53;;;;;;;3.20;2.83;;;;;;;4.22;100.00;100090.88;6274736;28;20547;-75
2024/03/24 00:35:15;;;;;;;2.33;1.90;;;;;;;4.27;100.00;100094.94;6262688;28;20240;-74
2024/03/24 00:38:45;;;;;;;3.67;2.70;;;;;;;4.23;100.00;100088.13;6270637;28;20557;-75
2024/03/24 00:51:19;;;;;;;3.77;2.30;;;;;;;4.24;100.00;100083.63;6205303;28;20358;-72
2024/03/24 00:54:55;;;;;;;3.33;2.10;;;;;;;4.27;100.00;100078.06;6242502;28;20239;-73
2024/03/24 00:58:15;;;;;;;5.50;2.60;;;;;;;4.25;100.00;100083.53;6253104;28;20276;-74
2024/03/24 01:01:36;;;;;;;2.93;2.53;;;;;;;4.24;100.00;100075.63;6238955;28;20231;-74
2024/03/24 01:05:00;;;;;;;6.40;2.27;;;;;;;4.19;100.00;100057.31;6277776;28;20227;-74
2024/03/24 01:08:24;;;;;;;3.67;2.93;;;;;;;4.22;100.00;100061.56;6266064;28;20239;-74
2024/03/24 01:11:46;;;;;;;5.37;3.90;;;;;;;4.20;100.00;100059.00;6282632;28;20524;-75
2024/03/24 01:15:08;;;;;;;3.63;3.13;;;;;;;4.19;100.00;100046.66;6271607;28;20223;-72
2024/03/24 01:18:27;;;;;;;4.37;3.03;;;;;;;4.18;100.00;100044.94;6278846;28;20226;-74
2024/03/24 01:21:49;;;;;;;3.17;2.97;;;;;;;4.17;100.00;100047.72;6259716;27;20609;-74
2024/03/24 01:25:11;;;;;;;4.73;2.83;;;;;;;4.12;100.00;100033.88;6267527;28;20223;-71
2024/03/24 01:28:32;;;;;;;3.23;2.97;;;;;;;4.11;100.00;100026.88;6267746;28;20219;-73
2024/03/24 01:40:54;;;;;;;4.73;2.10;;;;;;;4.28;100.00;100019.25;5330179;26;20258;-73
2024/03/24 01:44:39;;;;;;;3.43;3.20;;;;;;;4.22;100.00;100009.06;6395379;23;20242;-76
2024/03/24 01:52:05;;;;;;;2.63;2.43;;;;;;;4.24;100.00;99996.47;6753917;23;20360;31
2024/03/24 01:55:52;;;;;;;3.63;2.50;;;;;;;4.24;100.00;99984.94;6065843;28;20669;-75
2024/03/24 01:59:14;;;;;;;6.33;3.03;;;;;;;4.30;100.00;99990.66;6079353;29;20236;-74
2024/03/24 02:02:35;;;;;;;5.47;4.60;;;;;;;4.35;100.00;99988.47;6072960;28;20236;-74
2024/03/24 02:05:55;;;;;;;4.50;3.97;;;;;;;4.28;100.00;99981.91;6071038;28;20231;-74
2024/03/24 02:09:15;;;;;;;7.03;3.67;;;;;;;4.34;100.00;99992.09;6078786;29;20241;-72
2024/03/24 02:12:40;;;;;;;12.23;4.00;;;;;;;4.34;100.00;99975.28;6069668;28;20237;-74
2024/03/24 02:16:01;;;;;;;4.13;3.03;;;;;;;4.42;100.00;99976.34;6094415;28;20232;-73
2024/03/24 02:19:26;;;;;;;4.13;3.50;;;;;;;4.41;100.00;99965.81;6055657;28;20256;-73
2024/03/24 02:23:13;;;;;;;3.07;2.77;;;;;;;4.42;100.00;99955.00;6081636;29;20255;-73
2024/03/24 02:26:33;;;;;;;7.97;5.03;;;;;;;4.44;100.00;99957.56;6070250;29;20229;-73
2024/03/24 02:29:54;;;;;;;6.33;4.77;;;;;;;4.45;100.00;99949.44;6077088;29;20328;-75
2024/03/24 02:33:15;;;;;;;4.70;3.53;;;;;;;4.46;100.00;99934.28;6079601;29;20269;-74
2024/03/24 02:36:36;;;;;;;4.90;4.43;;;;;;;4.41;100.00;99936.47;6083191;28;20336;-72
2024/03/24 02:39:59;;;;;;;3.90;3.50;;;;;;;4.44;100.00;99938.91;6068961;29;20233;-73
2024/03/24 02:43:19;;;;;;;6.77;4.60;;;;;;;4.49;100.00;99905.53;6094603;28;20247;-73
2024/03/24 02:46:40;;;;;;;5.13;3.67;;;;;;;4.51;100.00;99913.41;6090638;28;20232;-74
2024/03/24 02:50:01;;;;;;;4.47;3.70;;;;;;;4.50;100.00;99898.38;6081163;29;20327;-75
2024/03/24 02:53:20;;;;;;;4.30;3.50;;;;;;;4.58;100.00;99894.16;6100904;28;20235;-74
2024/03/24 02:56:42;;;;;;;7.73;5.23;;;;;;;4.61;100.00;99903.72;6083507;28;20235;-75
2024/03/24 03:00:08;;;;;;;5.40;4.43;;;;;;;4.61;100.00;99901.06;6110116;28;20239;-73
2024/03/24 03:03:28;;;;;;;3.77;3.43;;;;;;;4.65;100.00;99884.66;6095953;28;20224;-73
2024/03/24 03:06:49;;;;;;;5.10;3.87;;;;;;;4.70;100.00;99878.94;6075867;28;20370;-72
2024/03/24 03:14:17;;;;;;;6.13;3.40;;;;;;;4.78;100.00;99852.47;6122515;28;20240;-72
2024/03/24 03:17:38;;;;;;;5.33;3.40;;;;;;;4.78;100.00;99860.50;6089608;28;20228;-71
2024/03/24 03:21:00;;;;;;;5.67;5.17;;;;;;;4.73;100.00;99839.53;6109758;28;20605;-72
2024/03/24 03:24:23;;;;;;;5.73;4.07;;;;;;;4.70;100.00;99837.09;6114227;28;20240;-72
2024/03/24 03:27:45;;;;;;;7.37;4.00;;;;;;;4.69;100.00;99826.56;6085842;28;20244;-72
2024/03/24 03:31:08;;;;;;;3.77;3.47;;;;;;;4.73;100.00;99833.34;6109381;28;20255;-73
2024/03/24 03:34:31;;;;;;;4.13;3.80;;;;;;;4.72;100.00;99827.13;6087598;29;20319;-72
2024/03/24 03:38:09;;;;;;;5.07;4.43;;;;;;;4.80;100.00;99830.03;6105093;28;20244;-73
2024/03/24 03:41:31;;;;;;;5.17;4.53;;;;;;;4.78;100.00;99820.44;6108483;28;20247;-74
2024/03/24 03:44:52;;;;;;;4.43;3.73;;;;;;;4.84;100.00;99830.63;6099143;28;20700;-72
2024/03/24 03:48:14;;;;;;;4.60;4.20;;;;;;;4.87;100.00;99819.69;6110185;28;20616;-73
2024/03/24 03:51:37;;;;;;;4.80;3.90;;;;;;;4.85;100.00;99803.81;6098500;28;20223;-73
2024/03/24 03:55:00;;;;;;;3.37;3.07;;;;;;;4.83;100.00;99823.59;6096572;28;20313;-73
2024/03/24 03:58:21;;;;;;;6.50;5.57;;;;;;;4.90;100.00;99799.91;6107043;28;20240;-74
2024/03/24 04:01:41;;;;;;;4.20;3.50;;;;;;;4.93;100.00;99818.34;6112602;28;20227;-73
2024/03/24 04:05:04;;;;;;;6.20;5.00;;;;;;;4.89;100.00;99807.06;6101532;28;20831;-74
2024/03/24 04:08:25;;;;;;;7.97;5.83;;;;;;;4.91;100.00;99797.09;6102215;28;20639;-72
2024/03/24 04:11:48;;;;;;;5.30;4.80;;;;;;;4.85;100.00;99784.28;6104416;28;21108;-74
2024/03/24 04:15:10;;;;;;;5.70;5.13;;;;;;;4.82;100.00;99793.38;6102971;28;20231;-73
2024/03/24 04:18:29;;;;;;;6.60;6.07;;;;;;;4.86;100.00;99777.94;6102734;28;20248;-75
2024/03/24 04:21:53;;;;;;;6.17;5.57;;;;;;;4.89;100.00;99780.38;6109869;28;20235;-73
2024/03/24 04:25:15;;;;;;;6.37;5.40;;;;;;;4.84;100.00;99780.75;6105330;28;20232;-74
2024/03/24 04:28:49;;;;;;;7.13;6.53;;;;;;;4.86;100.00;99776.13;6106683;28;20239;-75
2024/03/24 04:32:09;;;;;;;8.70;6.43;;;;;;;4.86;100.00;99765.44;6121312;28;20243;-73
2024/03/24 04:35:30;;;;;;;7.13;6.53;;;;;;;4.88;100.00;99778.69;6087066;28;20959;-72
2024/03/24 04:38:53;;;;;;;7.73;6.23;;;;;;;4.92;100.00;99781.94;6109377;28;20232;-74
2024/03/24 04:42:14;;;;;;;7.77;7.07;;;;;;;4.96;100.00;99773.56;6100712;28;20246;-74
2024/03/24 04:45:35;;;;;;;8.23;7.27;;;;;;;4.94;100.00;99764.81;6103850;28;20597;-72
2024/03/24 04:48:57;;;;;;;7.03;6.33;;;;;;;4.91;100.00;99761.53;6099996;28;20608;-72
2024/03/24 04:52:20;;;;;;;7.80;7.10;;;;;;;4.94;100.00;99745.28;6106718;28;20247;-74
2024/03/24 04:55:43;;;;;;;9.17;7.60;;;;;;;4.92;100.00;99752.56;6088818;28;20220;-76
2024/03/24 04:59:03;;;;;;;9.47;7.87;;;;;;;4.96;100.00;99740.66;6107342;28;20553;-73
2024/03/24 05:02:28;;;;;;;8.67;7.97;;;;;;;4.94;100.00;99748.81;6109997;28;20235;-73
2024/03/24 05:05:51;;;;;;;7.50;6.80;;;;;;;4.93;100.00;99752.44;6097364;28;20325;-73
2024/03/24 05:09:12;;;;;;;9.60;8.00;;;;;;;4.98;100.00;99752.91;6109481;28;20617;-74
2024/03/24 05:12:33;;;;;;;7.00;6.33;;;;;;;5.03;100.00;99755.19;6106395;28;20275;-72
2024/03/24 05:15:55;;;;;;;8.27;7.47;;;;;;;5.01;100.00;99749.13;6086338;28;20615;-73
2024/03/24 05:19:30;;;;;;;8.50;7.70;;;;;;;5.04;100.00;99746.19;6106255;28;20227;-73
2024/03/24 05:22:50;;;;;;;8.00;7.30;;;;;;;5.04;100.00;99748.88;6103186;28;20243;-72
2024/03/24 05:26:11;;;;;;;6.57;5.93;;;;;;;5.04;100.00;99754.22;6084075;28;20231;-74
2024/03/24 05:29:33;;;;;;;8.20;6.97;;;;;;;5.08;100.00;99751.16;6088021;28;20236;-74
2024/03/24 05:32:54;;;;;;;8.90;8.07;;;;;;;5.09;100.00;99762.69;6114464;28;20228;-74
2024/03/24 05:36:15;;;;;;;7.27;6.57;;;;;;;5.07;100.00;99753.97;6104906;28;20323;-74
2024/03/24 05:39:36;;;;;;;12.30;7.03;;;;;;;5.07;100.00;99753.97;6120424;28;20605;-73
2024/03/24 05:46:50;;;;;;;8.00;7.30;;;;;;;5.05;100.00;99746.06;6113913;28;20240;-73
2024/03/24 05:50:22;;;;;;;5.67;4.17;;;;;;;5.07;100.00;99761.97;6109544;28;20239;-74
2024/03/24 05:53:43;;;;;;;7.10;6.40;;;;;;;5.08;100.00;99736.94;6104241;28;20228;-74
2024/03/24 05:57:04;;;;;;;6.10;5.50;;;;;;;5.04;100.00;99743.53;6107645;28;20324;-72
2024/03/24 06:00:25;;;;;;;7.83;7.03;;;;;;;5.05;100.00;99742.56;6110407;28;20604;-74
2024/03/24 06:03:47;;;;;;;6.00;5.50;;;;;;;5.07;100.00;99740.63;6100700;28;20248;-75
2024/03/24 06:07:10;;;;;;;6.83;6.33;;;;;;;5.13;100.00;99753.44;6106239;28;20236;-74
2024/03/24 06:10:31;;;;;;;6.37;5.87;;;;;;;5.04;100.00;99744.38;6100291;28;20232;-74
2024/03/24 06:13:52;;;;;;;7.73;6.97;;;;;;;5.04;100.00;99739.03;6111632;28;20626;-73
2024/03/24 06:17:13;;;;;;;6.33;5.83;;;;;;;5.09;100.00;99752.00;6101419;28;20233;-72
2024/03/24 06:20:38;;;;;;;6.33;5.83;;;;;;;5.19;100.00;99744.91;6084884;28;20232;-73
2024/03/24 06:23:58;;;;;;;6.20;5.70;;;;;;;5.16;100.00;99745.16;6098613;28;21191;-73
2024/03/24 06:27:19;;;;;;;9.43;6.20;;;;;;;5.14;100.00;99739.94;6089755;28;20240;-73
2024/03/24 06:30:41;;;;;;;5.30;4.90;;;;;;;5.18;100.00;99735.19;6087155;28;20931;-74
2024/03/24 06:34:02;;;;;;;6.77;6.17;;;;;;;5.14;100.00;99739.09;6110026;28;20528;-73
2024/03/24 06:37:24;;;;;;;4.97;4.10;;;;;;;5.12;100.00;99733.03;6107411;28;20235;-73
2024/03/24 06:40:45;;;;;;;4.30;4.00;;;;;;;5.11;100.00;99739.38;6106279;28;20239;-73
2024/03/24 06:44:12;;;;;;;3.77;3.47;;;;;;;5.06;100.00;99744.25;6113813;28;20228;-73
2024/03/24 06:47:41;;;;;;;6.03;5.53;;;;;;;5.09;100.00;99738.66;6103275;28;20228;-74
2024/03/24 06:51:01;;;;;;;4.30;3.90;;;;;;;5.03;100.00;99742.66;6097663;28;20232;-74
2024/03/24 06:54:24;;;;;;;6.57;5.57;;;;;;;5.09;100.00;99749.34;6104099;28;20345;-76
2024/03/24 06:57:45;;;;;;;5.63;4.60;;;;;;;5.05;100.00;99739.91;6086888;28;20239;-73
2024/03/24 07:01:05;;;;;;;5.00;4.60;;;;;;;5.10;100.00;99729.66;6109066;28;20219;-75
2024/03/24 07:04:26;;;;;;;3.03;2.83;;;;;;;5.15;100.00;99743.47;6107613;28;20575;-73
2024/03/24 07:07:49;;;;;;;3.57;3.30;;;;;;;5.15;100.00;99732.78;6093489;28;20656;-75
2024/03/24 07:11:10;;;;;;;3.37;3.17;;;;;;;5.08;100.00;99735.13;6109057;28;20247;-73
2024/03/24 07:14:31;;;;;;;3.10;2.90;;;;;;;5.14;100.00;99734.59;6107311;28;20247;-74
2024/03/24 07:17:52;;;;;;;3.20;3.00;;;;;;;5.05;100.00;99739.91;6112777;28;20248;-74
2024/03/24 07:21:13;;;;;;;4.23;3.93;;;;;;;5.19;100.00;99734.22;6097039;28;20232;-74
2024/03/24 07:24:33;;;;;;;5.27;3.27;;;;;;;5.18;100.00;99737.84;6096679;28;20246;-74
2024/03/24 07:27:55;;;;;;;3.27;3.07;;;;;;;5.17;100.00;99733.50;6100167;28;20224;-74
2024/03/24 07:31:18;;;;;;;3.63;3.43;;;;;;;5.23;100.00;99739.19;6071108;28;20609;-75
2024/03/24 07:34:41;;;;;;;3.03;2.83;;;;;;;5.36;100.00;99736.31;6097292;28;20240;-74
2024/03/24 07:38:02;;;;;;;4.63;4.33;;;;;;;5.29;100.00;99737.81;6112023;28;20231;-73
2024/03/24 07:41:23;;;;;;;3.40;3.10;;;;;;;5.38;100.00;99731.69;6069638;28;20239;-74
2024/03/24 07:44:46;;;;;;;3.50;3.23;;;;;;;5.38;100.00;99731.69;6113941;28;20314;-75
2024/03/24 07:48:06;;;;;;;4.03;3.73;;;;;;;5.40;100.00;99735.06;6106021;28;20629;-76
2024/03/24 07:51:39;;;;;;;4.60;4.20;;;;;;;5.48;100.00;99728.09;6099097;28;21950;-76
2024/03/24 07:55:00;;;;;;;4.30;3.77;;;;;;;5.53;100.00;99725.84;6112906;28;20243;-74
2024/03/24 07:58:21;;;;;;;4.07;3.67;;;;;;;5.40;100.00;99732.41;6096330;28;20555;-75
2024/03/24 08:01:44;;;;;;;7.67;6.80;;;;;;;5.44;100.00;99736.50;6093263;28;21866;-76
2024/03/24 08:05:05;;;;;;;5.03;4.63;;;;;;;5.52;100.00;99742.88;6104383;28;20227;-74
2024/03/24 08:08:26;;;;;;;5.10;4.60;;;;;;;5.67;100.00;99730.00;6100207;28;20228;-74
2024/03/24 08:11:47;;;;;;;7.03;3.87;;;;;;;5.72;100.00;99729.59;6090113;28;20677;-72
2024/03/24 08:15:07;;;;;;;5.07;4.57;;;;;;;5.83;100.00;99718.81;6098933;28;20235;-72
2024/03/24 08:18:34;;;;;;;8.40;5.37;;;;;;;5.90;100.00;99720.88;6104557;28;20234;-72
2024/03/24 08:21:56;;;;;;;5.27;4.77;;;;;;;6.33;100.00;99715.19;6102169;28;20244;-73
2024/03/24 08:25:16;;;;;;;4.83;4.43;;;;;;;6.34;100.00;99727.59;6106052;28;20655;-72
2024/03/24 08:28:37;;;;;;;6.23;4.37;;;;;;;6.16;100.00;99729.22;6085471;28;20229;-70
2024/03/24 08:31:58;;;;;;;4.87;4.50;;;;;;;6.16;100.00;99730.09;6082957;28;20337;-70
2024/03/24 08:35:20;;;;;;;6.23;5.63;;;;;;;6.10;100.00;99725.28;6088904;28;20239;-70
2024/03/24 08:38:41;;;;;;;6.57;5.97;;;;;;;6.14;100.00;99712.47;6094109;28;20229;-73
2024/03/24 08:42:02;;;;;;;6.50;5.00;;;;;;;6.15;100.00;99731.06;6093162;28;20244;-75
2024/03/24 08:45:23;;;;;;;4.53;4.17;;;;;;;6.18;100.00;99728.13;6085603;28;20504;-74
2024/03/24 08:48:48;;;;;;;5.47;4.10;;;;;;;6.34;100.00;99714.22;6099512;28;20464;-73
2024/03/24 08:52:16;;;;;;;11.03;4.40;;;;;;;6.36;100.00;99722.97;6101859;28;21201;-78
2024/03/24 08:55:38;;;;;;;5.73;5.03;;;;;;;6.23;100.00;99723.22;6086586;28;20231;-77
2024/03/24 08:58:58;;;;;;;4.83;4.43;;;;;;;6.30;100.00;99726.19;6117715;28;20251;-76
2024/03/24 09:02:20;;;;;;;7.77;5.00;;;;;;;6.48;100.00;99721.84;6091801;28;20260;-76
2024/03/24 09:05:40;;;;;;;6.70;5.73;;;;;;;6.70;100.00;99716.22;6103731;28;20240;-77
2024/03/24 09:09:03;;;;;;;19.87;18.00;;;;;;;7.12;100.00;99700.69;6084660;28;20599;-74
2024/03/24 09:12:24;;;;;;;18.40;16.60;;;;;;;7.50;100.00;99706.00;6091824;28;20232;-77
2024/03/24 09:15:45;;;;;;;46.87;42.40;;;;;;;7.26;100.00;99713.66;6087455;28;20248;-76
2024/03/24 09:19:05;;;;;;;562.87;264.13;;;;;;;7.96;100.00;99697.06;6104630;28;20221;-75
2024/03/24 09:22:26;;;;;;;14.33;12.80;;;;;;;7.19;100.00;99696.47;6103781;28;20235;-78
2024/03/24 09:25:50;;;;;;;9.77;8.23;;;;;;;7.85;100.00;99707.97;6099879;28;20240;-78
2024/03/24 09:29:11;;;;;;;8.47;7.67;;;;;;;7.51;100.00;99704.97;6082823;28;20223;-78
2024/03/24 09:32:31;;;;;;;3.37;3.13;;;;;;;7.54;100.00;99703.84;6096079;28;20236;-79
2024/03/24 09:35:53;;;;;;;5.50;3.63;;;;;;;7.22;100.00;99696.16;6091884;28;20228;-80
2024/03/24 09:39:13;;;;;;;3.47;3.17;;;;;;;6.89;100.00;99693.94;6097473;28;20236;-81
2024/03/24 09:42:36;;;;;;;3.37;3.10;;;;;;;6.94;100.00;99689.88;6103950;28;20310;-78
2024/03/24 09:45:56;;;;;;;4.63;2.90;;;;;;;6.81;100.00;99709.88;6109531;28;20231;-80
2024/03/24 09:49:17;;;;;;;3.47;3.17;;;;;;;7.17;100.00;99691.25;6106168;28;20243;-80
2024/03/24 09:52:38;;;;;;;2.80;2.60;;;;;;;7.33;100.00;99685.28;6099803;28;20343;-80
2024/03/24 09:56:03;;;;;;;3.20;2.30;;;;;;;7.32;100.00;99680.94;6098857;28;20228;-80
2024/03/24 09:59:37;;;;;;;3.63;2.27;;;;;;;7.04;100.00;99682.66;6118154;28;20236;-78
2024/03/24 10:02:58;;;;;;;2.47;2.27;;;;;;;7.18;100.00;99690.25;6097716;28;20231;-79
2024/03/24 10:06:18;;;;;;;2.47;2.27;;;;;;;6.94;100.00;99689.03;6104685;28;20232;-80
2024/03/24 10:09:39;;;;;;;3.60;2.73;;;;;;;7.05;100.00;99678.97;6117801;28;20248;-80
2024/03/24 10:13:03;;;;;;;3.60;2.87;;;;;;;7.19;100.00;99680.38;6081740;28;20320;-79
2024/03/24 10:16:25;;;;;;;2.33;2.13;;;;;;;7.51;100.00;99688.88;6120606;28;20223;-78
2024/03/24 10:19:47;;;;;;;3.40;1.93;;;;;;;7.32;100.00;99672.88;6115167;28;21806;-81
2024/03/24 10:23:08;;;;;;;4.97;1.60;;;;;;;7.21;100.00;99681.09;6099138;28;20235;-75
2024/03/24 10:26:29;;;;;;;1.77;1.50;;;;;;;7.48;100.00;99675.78;6118842;28;20322;-74
2024/03/24 10:29:51;;;;;;;2.07;1.57;;;;;;;7.75;100.00;99674.97;6113709;28;20615;-74
2024/03/24 10:33:13;;;;;;;1.03;1.03;;;;;;;7.99;100.00;99664.53;6081559;28;20240;-75
2024/03/24 10:36:37;;;;;;;4.87;1.83;;;;;;;7.85;100.00;99665.91;6100460;28;20229;-73
2024/03/24 10:39:57;;;;;;;2.60;1.70;;;;;;;8.05;100.00;99670.16;6092846;28;20613;-74
2024/03/24 10:43:18;;;;;;;1.70;1.20;;;;;;;7.88;100.00;99659.41;6112521;28;20301;-72
2024/03/24 10:46:40;;;;;;;2.07;1.63;;;;;;;7.58;100.00;99660.50;6093911;28;20231;-74
2024/03/24 10:50:19;;;;;;;1.20;1.10;;;;;;;7.48;100.00;99659.72;6096751;28;20236;-74
2024/03/24 10:53:43;;;;;;;1.30;1.20;;;;;;;7.67;100.00;99650.75;6092067;28;20235;-72
2024/03/24 10:57:05;;;;;;;11.77;2.53;;;;;;;7.99;100.00;99654.66;6103864;28;20261;-73
2024/03/24 11:00:28;;;;;;;1.43;1.37;;;;;;;7.85;100.00;99654.31;6104541;28;20518;-74
2024/03/24 11:03:50;;;;;;;1.20;1.10;;;;;;;7.60;100.00;99655.00;6119563;28;20235;-75
2024/03/24 11:07:14;;;;;;;1.47;0.90;;;;;;;8.05;100.00;99650.56;6128351;28;20259;-73
2024/03/24 11:10:35;;;;;;;1.97;1.87;;;;;;;8.05;100.00;99650.56;6112822;28;20259;-75
2024/03/24 11:13:56;;;;;;;1.73;1.27;;;;;;;7.73;100.00;99651.00;6142364;28;20239;-74
2024/03/24 11:17:18;;;;;;;1.60;1.43;;;;;;;8.88;100.00;99644.84;6125002;28;20239;-72
2024/03/24 11:20:40;;;;;;;3.03;1.70;;;;;;;11.38;100.00;99629.47;6131489;28;20707;-78
2024/03/24 11:24:02;;;;;;;3.87;2.83;;;;;;;9.55;100.00;99620.75;6136190;28;20228;-77
2024/03/24 11:27:29;;;;;;;6.40;3.03;;;;;;;8.47;100.00;99632.88;6120787;28;20633;-79
2024/03/24 11:30:51;;;;;;;2.03;1.93;;;;;;;8.22;100.00;99620.19;6112473;28;20231;-78
2024/03/24 11:34:35;;;;;;;3.93;2.27;;;;;;;8.81;100.00;99616.91;6137484;28;20597;-78
2024/03/24 11:37:57;;;;;;;2.67;2.47;;;;;;;8.24;100.00;99625.41;6118300;28;20235;-78
2024/03/24 11:41:24;;;;;;;3.83;2.00;;;;;;;8.08;100.00;99616.19;6116277;28;20234;-78
2024/03/24 11:44:44;;;;;;;4.10;1.93;;;;;;;7.88;100.00;99613.78;6135718;28;20239;-77
2024/03/24 11:48:30;;;;;;;2.10;1.90;;;;;;;7.91;100.00;99617.00;6126392;28;20231;-77
2024/03/24 11:52:09;;;;;;;2.37;2.17;;;;;;;8.13;100.00;99609.53;6135832;28;20234;-79
2024/03/24 11:55:31;;;;;;;3.53;1.33;;;;;;;8.50;100.00;99599.50;6129187;28;20235;-79
2024/03/24 11:58:55;;;;;;;2.10;1.63;;;;;;;8.74;100.00;99600.56;6135453;28;20238;-76
2024/03/24 12:02:16;;;;;;;4.53;2.13;;;;;;;10.75;100.00;99591.63;6125319;28;20318;-77
2024/03/24 12:05:36;;;;;;;2.80;1.97;;;;;;;10.82;100.00;99569.22;6119456;28;20258;-78
2024/03/24 12:08:58;;;;;;;2.47;2.13;;;;;;;10.30;100.00;99574.09;6125387;28;21017;-78
2024/03/24 12:12:26;;;;;;;3.30;2.20;;;;;;;8.84;100.00;99570.94;6120624;28;20235;-79
2024/03/24 12:15:48;;;;;;;3.77;2.50;;;;;;;8.51;100.00;99582.41;6132742;28;20234;-77
2024/03/24 12:19:08;;;;;;;1.83;1.67;;;;;;;8.54;100.00;99576.72;6131597;28;20223;-78
2024/03/24 12:22:29;;;;;;;1.97;1.80;;;;;;;8.43;100.00;99590.38;6136813;28;20226;-78
2024/03/24 12:25:49;;;;;;;1.93;1.50;;;;;;;7.98;100.00;99609.19;6129431;28;20239;-80
2024/03/24 12:29:17;;;;;;;2.10;1.90;;;;;;;8.56;100.00;99591.69;6134912;28;20220;-78
2024/03/24 12:32:50;;;;;;;2.00;1.90;;;;;;;8.42;100.00;99581.50;6121267;28;20529;-81
2024/03/24 12:36:11;;;;;;;3.07;2.10;;;;;;;8.78;100.00;99572.38;6104749;28;20220;-80
2024/03/24 12:39:32;;;;;;;2.90;2.03;;;;;;;8.70;100.00;99577.69;6135191;28;20239;-79
2024/03/24 12:42:53;;;;;;;1.67;1.57;;;;;;;9.59;100.00;99575.56;6119682;28;20231;-77
2024/03/24 12:46:24;;;;;;;1.67;1.57;;;;;;;9.37;100.00;99568.03;6117883;28;20645;-78
2024/03/24 12:49:46;;;;;;;1.90;1.80;;;;;;;8.30;100.00;99561.25;6112076;28;20352;-78
2024/03/24 12:53:15;;;;;;;3.40;2.03;;;;;;;8.31;100.00;99568.31;6116969;28;20216;-78
2024/03/24 12:56:38;;;;;;;1.27;0.90;;;;;;;7.95;100.00;99574.59;6129301;28;20234;-77
2024/03/24 13:00:01;;;;;;;1.20;1.10;;;;;;;8.13;100.00;99563.91;6130879;28;20263;-77
2024/03/24 13:03:23;;;;;;;1.37;1.00;;;;;;;8.19;100.00;99560.59;6129334;28;20805;-77
2024/03/24 13:06:46;;;;;;;1.90;1.23;;;;;;;8.24;100.00;99561.81;6132331;28;20219;-77
2024/03/24 13:10:08;;;;;;;1.10;1.00;;;;;;;8.26;100.00;99548.28;6116467;28;20231;-78
2024/03/24 13:13:38;;;;;;;0.97;0.97;;;;;;;8.14;100.00;99557.53;6135796;28;20615;-77
2024/03/24 13:17:02;;;;;;;1.80;1.70;;;;;;;8.14;100.00;99557.53;6123518;28;20227;-79
2024/03/24 13:20:23;;;;;;;2.07;1.10;;;;;;;8.44;100.00;99535.69;6116551;28;20552;-78
2024/03/24 13:23:49;;;;;;;2.13;1.57;;;;;;;8.25;100.00;99538.50;6123885;28;20806;-79
2024/03/24 13:27:16;;;;;;;2.93;1.60;;;;;;;8.09;100.00;99536.53;6105875;28;20227;-77
2024/03/24 13:30:39;;;;;;;3.47;2.13;;;;;;;8.09;100.00;99542.72;6121253;28;20246;-77
2024/03/24 13:34:00;;;;;;;1.53;1.20;;;;;;;8.01;100.00;99534.59;6124366;28;20238;-78
2024/03/24 13:37:27;;;;;;;2.80;2.50;;;;;;;8.07;100.00;99536.66;6101092;28;20258;-78
2024/03/24 13:41:06;;;;;;;1.70;1.60;;;;;;;8.07;100.00;99533.16;6123030;28;20803;-76
2024/03/24 13:44:49;;;;;;;2.10;1.90;;;;;;;8.34;100.00;99530.41;6130490;28;20238;-79
2024/03/24 13:48:12;;;;;;;2.50;2.30;;;;;;;8.42;100.00;99510.84;6118853;28;20625;-78
2024/03/24 13:51:36;;;;;;;3.77;2.40;;;;;;;8.26;100.00;99522.28;6119675;28;20514;-80
2024/03/24 13:54:58;;;;;;;2.10;2.00;;;;;;;8.27;100.00;99515.91;6138682;28;20262;-79
2024/03/24 13:58:20;;;;;;;2.87;2.27;;;;;;;8.08;100.00;99524.09;6102792;28;20262;-77
2024/03/24 14:01:40;;;;;;;2.13;1.93;;;;;;;7.96;100.00;99520.81;6126634;28;20228;-77
2024/03/24 14:05:01;;;;;;;2.10;1.90;;;;;;;7.82;100.00;99515.13;6106802;28;20242;-79
2024/03/24 14:08:21;;;;;;;2.20;2.00;;;;;;;7.90;100.00;99510.69;6135047;28;20604;-80
2024/03/24 14:11:42;;;;;;;2.50;2.33;;;;;;;7.88;100.00;99523.41;6134090;28;20272;-78
2024/03/24 14:15:10;;;;;;;1.83;1.67;;;;;;;7.94;100.00;99513.91;6104036;28;20239;-78
2024/03/24 14:18:42;;;;;;;2.43;1.70;;;;;;;7.98;100.00;99494.66;6113786;28;20239;-78
2024/03/24 14:22:09;;;;;;;1.53;1.23;;;;;;;7.91;100.00;99516.88;6131513;28;20227;-79
2024/03/24 14:25:31;;;;;;;2.47;2.27;;;;;;;8.04;100.00;99503.94;6109590;28;20223;-79
2024/03/24 14:28:52;;;;;;;2.50;1.40;;;;;;;8.19;100.00;99497.03;6134638;28;20259;-78
2024/03/24 14:32:14;;;;;;;1.37;1.00;;;;;;;8.21;100.00;99483.44;6134728;28;20330;-78
2024/03/24 14:35:40;;;;;;;1.10;0.90;;;;;;;8.01;100.00;99505.06;6124405;28;20239;-79
2024/03/24 14:39:14;;;;;;;0.83;0.80;;;;;;;7.94;100.00;99520.13;6141511;28;20251;-78
2024/03/24 14:42:46;;;;;;;0.70;0.70;;;;;;;7.62;100.00;99502.81;6132920;28;20227;-78
2024/03/24 14:46:20;;;;;;;1.77;1.67;;;;;;;7.62;100.00;99514.41;6117161;28;20235;-78
2024/03/24 14:49:43;;;;;;;2.47;1.93;;;;;;;7.42;100.00;99499.44;6147101;28;20330;-79
2024/03/24 14:53:03;;;;;;;1.13;1.13;;;;;;;7.35;100.00;99505.53;6120212;28;20255;-78
2024/03/24 14:56:29;;;;;;;2.13;1.23;;;;;;;7.55;100.00;99501.75;6130145;28;20322;-78
2024/03/24 14:59:50;;;;;;;1.57;1.47;;;;;;;7.46;100.00;99500.81;6142734;28;20329;-79
2024/03/24 15:03:12;;;;;;;4.43;2.80;;;;;;;7.60;100.00;99488.72;6116160;28;20255;-77
2024/03/24 15:06:35;;;;;;;2.97;1.30;;;;;;;7.19;100.00;99498.16;6126426;28;20239;-77
2024/03/24 15:09:56;;;;;;;1.40;1.30;;;;;;;7.13;100.00;99498.75;6153296;28;20331;-78
2024/03/24 15:13:17;;;;;;;1.20;1.10;;;;;;;7.25;100.00;99503.75;6154091;28;20255;-79
2024/03/24 15:16:38;;;;;;;1.03;0.83;;;;;;;7.19;100.00;99500.84;6138381;28;20235;-80
2024/03/24 15:19:59;;;;;;;2.30;2.10;;;;;;;7.31;100.00;99488.06;6134365;28;20272;-78
2024/03/24 15:23:21;;;;;;;1.67;1.57;;;;;;;7.35;100.00;99486.78;6140302;28;20617;-78
2024/03/24 15:26:41;;;;;;;1.17;0.90;;;;;;;7.65;100.00;99479.25;6129295;28;20334;-79
2024/03/24 15:30:11;;;;;;;1.17;0.90;;;;;;;7.80;100.00;99476.88;6127538;28;21015;-78
2024/03/24 15:33:32;;;;;;;1.17;1.07;;;;;;;7.87;100.00;99475.25;6132390;28;20716;-78
2024/03/24 15:36:55;;;;;;;0.70;0.70;;;;;;;7.43;100.00;99479.66;6127833;28;20243;-79
2024/03/24 15:40:18;;;;;;;1.30;1.23;;;;;;;7.74;100.00;99477.50;6113323;28;20255;-79
2024/03/24 15:43:38;;;;;;;1.43;1.27;;;;;;;8.42;100.00;99466.03;6126960;28;20672;-74
2024/03/24 15:46:59;;;;;;;1.30;1.20;;;;;;;8.56;100.00;99460.09;6115851;28;20227;-75
2024/03/24 15:50:20;;;;;;;0.90;0.90;;;;;;;8.44;100.00;99465.88;6128997;28;20598;-74
2024/03/24 15:53:40;;;;;;;1.43;1.00;;;;;;;7.77;100.00;99469.97;6138301;28;20258;-74
2024/03/24 15:57:13;;;;;;;1.70;1.60;;;;;;;7.87;100.00;99468.06;6103204;28;20502;-74
2024/03/24 16:00:38;;;;;;;0.93;0.80;;;;;;;8.08;100.00;99465.06;6131595;28;20485;-75
2024/03/24 16:03:59;;;;;;;1.10;1.10;;;;;;;7.84;100.00;99481.75;6127813;28;20228;-74
2024/03/24 16:11:15;;;;;;;1.83;1.30;;;;;;;7.38;100.00;99475.75;6130845;28;20248;-76
2024/03/24 16:14:40;;;;;;;1.53;1.40;;;;;;;7.31;100.00;99474.66;6113951;28;20236;-71
2024/03/24 16:18:01;;;;;;;2.30;2.10;;;;;;;7.30;100.00;99471.16;6105360;28;20235;-77
2024/03/24 16:21:35;;;;;;;1.20;1.10;;;;;;;7.27;100.00;99474.13;6114913;28;20239;-78
2024/03/24 16:24:56;;;;;;;10.17;2.27;;;;;;;7.19;100.00;99472.22;6135230;28;20273;-77
2024/03/24 16:28:19;;;;;;;2.17;1.97;;;;;;;7.28;100.00;99481.16;6096912;28;21362;-78